Connecticut River @ Thompsonville, Ct

Connecticut River at Thompsonville
 Total Drainage Area: 9,661 sq. miles 
 Drainage Area Controlled by Corps Dams: 1,431 sq. miles (15%) 
 Warning Flow/Stage: 74,800 cfs / 14.5 feet 
 Flood Flow/Stage: 153,147 cfs / 19.2 feet 
Date Time
(Eastern)
Stage
(ft)
Flow
(cfs)
CSM
(cfs / sq. mi.)
Jun-25 02:30 am 9.69 18,895 2.0
Jun-25 01:30 am 9.70 18,989 2.0
Jun-25 12:30 am 9.63 18,337 1.9
Jun-24 11:30 pm 9.54 17,521 1.8
Jun-24 10:30 pm 9.49 17,078 1.8
Jun-24 09:30 pm 9.47 16,903 1.8
Jun-24 08:30 pm 9.44 16,642 1.7
Jun-24 07:30 pm 9.41 16,384 1.7
Jun-24 06:30 pm 9.37 16,045 1.7
Jun-24 05:30 pm 9.33 15,710 1.6
Jun-24 04:30 pm 9.30 15,461 1.6
Jun-24 03:30 pm 9.28 15,297 1.6
Jun-24 02:30 pm 9.25 15,053 1.6
Jun-24 01:30 pm 9.23 14,892 1.5
Jun-24 12:30 pm 9.21 14,732 1.5
Jun-24 11:30 am 9.19 14,573 1.5
Jun-24 10:30 am 9.16 14,337 1.5
Jun-24 09:30 am 9.12 13,920 1.4
Jun-24 08:30 am 9.08 13,492 1.4
Jun-24 07:30 am 9.05 13,177 1.4
Jun-24 06:30 am 9.01 12,766 1.3
Jun-24 05:30 am 8.97 12,358 1.3
Jun-24 04:30 am 8.93 11,958 1.2
Jun-24 03:30 am 8.89 11,569 1.2
Jun-24 02:30 am 8.85 11,189 1.2
Report Generated June 25, 2024 02:51 am